Clearfield, Utah
Current Conditions -  °F | °C
As of 1:58 PM on Wednesday 26 Nov 2014 (Local Time) from KHIF Reporting Station
Clear Clear  
Wind Chill: 56°   Ceiling: Unl
Heat Index: 56°   Visibility: 10mi
Dew Point: 31°   Wind: 6mph
Humidity: 38%   Direction: 200°SSW
Pressure: 30.37"   Gusts: NA
Location:  41.11°N, 112.02°W
Report Text: KHIF 262058Z AUTO 20005KT 10SM CLR 13/M01 A3037 RMK AO2 SLP264 T01341008 57011
Loading
Personal Weather Stations






























Interactive Weather Map New forecast layout! Learn more

10-Day Weather Forecast

Advertisements
Track Severe Weather on mobile